Time;durP1;ratioP1;P1;durP2;ratioP2;P2;SDS_P1;SDS_P2;PMS_P1;PMS_P2;Temp;Humidity;BMP_temperature;BMP_pressure;BME280_temperature;BME280_humidity;BME280_pressure;Samples;Min_cycle;Max_cycle;Signal;HPM_P1;HPM_P2
2023/03/01 00:01:18;;;;;;;;;;;;;;;-3.93;65.97;98321.00;108670;1251;101303;-77
2023/03/01 00:03:46;;;;;;;;;;;;;;;-3.94;66.03;98324.38;108849;1251;100218;-74
2023/03/01 00:06:14;;;;;;;;;;;;;;;-3.94;66.01;98327.58;108886;1251;95582;-78
2023/03/01 00:08:42;;;;;;;;;;;;;;;-3.95;66.17;98327.48;108884;1251;95618;-77
2023/03/01 00:11:19;;;;;;;;;;;;;;;-3.96;66.33;98326.11;108905;1251;103446;-76
2023/03/01 00:13:48;;;;;;;;;;;;;;;-3.96;66.29;98329.42;108855;1251;101277;-76
2023/03/01 00:16:20;;;;;;;;;;;;;;;-3.95;66.40;98326.41;108876;1249;99630;-74
2023/03/01 00:18:49;;;;;;;;;;;;;;;-3.97;66.30;98322.31;109016;1249;95545;-75
2023/03/01 00:21:17;;;;;;;;;;;;;;;-3.98;66.27;98324.35;108977;1251;95654;-75
2023/03/01 00:23:46;;;;;;;;;;;;;;;-4.02;66.42;98323.84;109013;1249;103468;-75
2023/03/01 00:26:14;;;;;;;;;;;;;;;-4.03;66.62;98321.09;109089;1250;101418;-74
2023/03/01 00:28:43;;;;;;;;;;;;;;;-4.06;66.41;98319.85;108990;1250;99949;-74
2023/03/01 00:31:13;;;;;;;;;;;;;;;-4.12;66.57;98316.73;108985;1251;95473;-73
2023/03/01 00:33:41;;;;;;;;;;;;;;;-4.19;66.64;98315.27;109040;1250;95602;-73
2023/03/01 00:36:09;;;;;;;;;;;;;;;-4.26;66.67;98310.45;109024;1249;112021;-74
2023/03/01 00:38:42;;;;;;;;;;;;;;;-4.27;66.83;98313.16;108985;1249;101316;-73
2023/03/01 00:41:12;;;;;;;;;;;;;;;-4.29;66.85;98312.92;108977;1251;99113;-75
2023/03/01 00:43:40;;;;;;;;;;;;;;;-4.30;66.89;98310.73;109007;1250;96445;-73
2023/03/01 00:46:09;;;;;;;;;;;;;;;-4.34;66.92;98306.59;108996;1251;95601;-76
2023/03/01 00:48:38;;;;;;;;;;;;;;;-4.38;67.08;98301.02;109001;1250;103501;-76
2023/03/01 00:51:14;;;;;;;;;;;;;;;-4.43;67.02;98298.04;108987;1249;101095;-73
2023/03/01 00:53:42;;;;;;;;;;;;;;;-4.48;66.99;98298.70;108977;1250;99665;-75
2023/03/01 00:56:11;;;;;;;;;;;;;;;-4.48;67.09;98297.29;109011;1251;95530;-76
2023/03/01 00:58:40;;;;;;;;;;;;;;;-4.48;67.07;98299.23;109042;1250;95596;-74
2023/03/01 01:01:19;;;;;;;;;;;;;;;-4.49;67.07;98295.95;109022;1250;102295;-76
2023/03/01 01:03:57;;;;;;;;;;;;;;;-4.50;66.99;98292.50;108984;1251;101337;-76
2023/03/01 01:06:29;;;;;;;;;;;;;;;-4.50;67.08;98296.02;108642;1251;100085;-73
2023/03/01 01:08:57;;;;;;;;;;;;;;;-4.50;67.19;98294.97;109034;1250;95979;-77
2023/03/01 01:11:26;;;;;;;;;;;;;;;-4.50;67.10;98299.19;109029;1250;95661;-76
2023/03/01 01:13:55;;;;;;;;;;;;;;;-4.52;67.07;98298.95;109010;1251;103953;-76
2023/03/01 01:16:24;;;;;;;;;;;;;;;-4.56;67.04;98300.25;109036;1250;100985;-76
2023/03/01 01:18:52;;;;;;;;;;;;;;;-4.60;66.95;98301.02;108990;1250;100134;-74
2023/03/01 01:21:22;;;;;;;;;;;;;;;-4.62;67.14;98297.15;109017;1250;95767;-75
2023/03/01 01:23:51;;;;;;;;;;;;;;;-4.65;67.19;98293.12;108731;1250;95715;-74
2023/03/01 01:26:29;;;;;;;;;;;;;;;-4.66;67.23;98291.95;109055;1250;103453;-74
2023/03/01 01:28:58;;;;;;;;;;;;;;;-4.67;67.26;98290.95;109000;1250;101568;-74
2023/03/01 01:31:26;;;;;;;;;;;;;;;-4.70;67.33;98288.45;108991;1250;99812;-73
2023/03/01 01:33:55;;;;;;;;;;;;;;;-4.74;67.27;98292.20;109006;1250;95559;-73
2023/03/01 01:36:23;;;;;;;;;;;;;;;-4.76;67.21;98292.17;108932;1249;95604;-74
2023/03/01 01:38:51;;;;;;;;;;;;;;;-4.78;67.34;98288.06;108712;1251;102119;-73
2023/03/01 01:41:20;;;;;;;;;;;;;;;-4.80;67.44;98284.15;108705;1251;101004;-74
2023/03/01 01:43:49;;;;;;;;;;;;;;;-4.84;67.34;98283.89;108991;1249;100067;-73
2023/03/01 01:46:26;;;;;;;;;;;;;;;-4.85;67.50;98279.55;108935;1250;97048;-76
2023/03/01 01:49:00;;;;;;;;;;;;;;;-4.84;67.63;98273.90;109029;1250;95902;-73
2023/03/01 01:51:37;;;;;;;;;;;;;;;-4.84;67.63;98266.84;108999;1249;103224;-74
2023/03/01 01:54:28;;;;;;;;;;;;;;;-4.85;67.67;98262.35;109031;1250;101249;-73
2023/03/01 01:56:59;;;;;;;;;;;;;;;-4.85;67.71;98258.85;108945;1251;100115;-75
2023/03/01 01:59:28;;;;;;;;;;;;;;;-4.85;67.62;98256.23;108958;1250;95537;-77
2023/03/01 02:01:59;;;;;;;;;;;;;;;-4.85;67.82;98256.21;109032;1250;95952;-73
2023/03/01 02:04:27;;;;;;;;;;;;;;;-4.85;67.76;98254.83;108990;1249;103364;-75
2023/03/01 02:07:04;;;;;;;;;;;;;;;-4.85;67.81;98251.84;108986;1250;110100;-75
2023/03/01 02:09:34;;;;;;;;;;;;;;;-4.86;67.80;98248.39;108962;1250;100160;-74
2023/03/01 02:12:03;;;;;;;;;;;;;;;-4.88;67.86;98246.05;108986;1251;97110;-78
2023/03/01 02:14:31;;;;;;;;;;;;;;;-4.89;67.91;98246.48;109009;1249;95752;-74
2023/03/01 02:16:59;;;;;;;;;;;;;;;-4.91;67.97;98246.42;109008;1250;112092;-77
2023/03/01 02:19:43;;;;;;;;;;;;;;;-4.93;67.93;98245.33;109006;1250;101567;-73
2023/03/01 02:22:24;;;;;;;;;;;;;;;-4.95;67.95;98251.02;108655;1251;99689;-74
2023/03/01 02:24:52;;;;;;;;;;;;;;;-4.97;68.01;98255.59;108945;1249;95557;-77
2023/03/01 02:27:24;;;;;;;;;;;;;;;-5.05;67.88;98260.08;109011;1250;95998;-73
2023/03/01 02:29:52;;;;;;;;;;;;;;;-5.10;68.04;98254.60;109016;1250;103378;-77
2023/03/01 02:32:24;;;;;;;;;;;;;;;-5.14;67.98;98249.93;109047;1250;101447;-74
2023/03/01 02:34:54;;;;;;;;;;;;;;;-5.16;68.09;98249.20;108967;1250;99486;-74
2023/03/01 02:37:24;;;;;;;;;;;;;;;-5.16;68.13;98246.37;108985;1250;95583;-74
2023/03/01 02:40:03;;;;;;;;;;;;;;;-5.15;68.29;98243.33;108896;1250;95848;-74
2023/03/01 02:42:33;;;;;;;;;;;;;;;-5.16;68.15;98242.50;109010;1250;103966;-76
2023/03/01 02:45:01;;;;;;;;;;;;;;;-5.16;68.17;98244.27;108992;1250;101441;-76
2023/03/01 02:47:29;;;;;;;;;;;;;;;-5.15;68.16;98244.55;108975;1249;100195;-76
2023/03/01 02:49:57;;;;;;;;;;;;;;;-5.17;68.29;98242.04;108950;1250;95567;-73
2023/03/01 02:52:55;;;;;;;;;;;;;;;-5.17;68.30;98243.09;109049;1250;95583;-76
2023/03/01 02:55:22;;;;;;;;;;;;;;;-5.16;68.27;98244.09;108272;1259;103379;-73
2023/03/01 02:57:51;;;;;;;;;;;;;;;-5.15;68.20;98248.44;108318;1259;101214;-75
2023/03/01 03:00:21;;;;;;;;;;;;;;;-5.18;68.13;98244.04;108301;1258;99605;-76
2023/03/01 03:02:52;;;;;;;;;;;;;;;-5.22;68.15;98248.35;108303;1258;95690;-73
2023/03/01 03:05:28;;;;;;;;;;;;;;;-5.25;68.19;98250.13;108321;1258;96256;-75
2023/03/01 03:07:57;;;;;;;;;;;;;;;-5.31;68.16;98251.88;108311;1258;103123;-74
2023/03/01 03:10:26;;;;;;;;;;;;;;;-5.38;68.14;98252.00;108306;1259;109179;-74
2023/03/01 03:12:56;;;;;;;;;;;;;;;-5.42;68.19;98260.41;108298;1258;99909;-74
2023/03/01 03:15:25;;;;;;;;;;;;;;;-5.42;68.38;98259.91;108277;1259;95669;-74
2023/03/01 03:17:53;;;;;;;;;;;;;;;-5.43;68.38;98255.41;108298;1258;95692;-74
2023/03/01 03:20:24;;;;;;;;;;;;;;;-5.47;68.52;98250.17;108313;1259;112214;-74
2023/03/01 03:22:53;;;;;;;;;;;;;;;-5.49;68.57;98251.20;108184;1260;101040;-74
2023/03/01 03:25:22;;;;;;;;;;;;;;;-5.48;68.49;98253.05;108261;1257;100373;-76
2023/03/01 03:27:56;;;;;;;;;;;;;;;-5.47;68.53;98251.95;108179;1257;95767;-75
2023/03/01 03:30:26;;;;;;;;;;;;;;;-5.51;68.55;98249.40;108343;1259;96533;-76
2023/03/01 03:32:54;;;;;;;;;;;;;;;-5.53;68.60;98250.02;108617;1251;104089;-74
2023/03/01 03:35:28;;;;;;;;;;;;;;;-5.54;68.74;98245.33;108928;1251;101375;-74
2023/03/01 03:38:03;;;;;;;;;;;;;;;-5.59;68.59;98239.88;108856;1251;107062;-78
2023/03/01 03:40:33;;;;;;;;;;;;;;;-5.62;68.57;98247.06;108817;1251;95520;-76
2023/03/01 03:43:01;;;;;;;;;;;;;;;-5.60;68.67;98247.66;108911;1251;95732;-75
2023/03/01 03:45:29;;;;;;;;;;;;;;;-5.59;68.55;98251.82;108668;1252;111198;-74
2023/03/01 03:47:57;;;;;;;;;;;;;;;-5.59;68.57;98254.99;108652;1251;101269;-74
2023/03/01 03:50:25;;;;;;;;;;;;;;;-5.59;68.53;98255.50;108686;1252;108176;-78
2023/03/01 03:52:53;;;;;;;;;;;;;;;-5.63;68.52;98254.98;108887;1251;95902;-74
2023/03/01 03:55:21;;;;;;;;;;;;;;;-5.66;68.55;98255.89;108912;1251;95790;-75
2023/03/01 03:57:51;;;;;;;;;;;;;;;-5.67;68.70;98258.61;108870;1251;103757;-74
2023/03/01 04:00:20;;;;;;;;;;;;;;;-5.69;68.83;98256.11;108890;1251;109984;-75
2023/03/01 04:02:49;;;;;;;;;;;;;;;-5.70;68.81;98257.05;108836;1251;100321;-74
2023/03/01 04:05:18;;;;;;;;;;;;;;;-5.69;68.80;98254.68;108636;1251;95871;-74
2023/03/01 04:07:47;;;;;;;;;;;;;;;-5.68;68.83;98252.02;108937;1251;95612;-78
2023/03/01 04:10:16;;;;;;;;;;;;;;;-5.68;68.88;98246.94;108700;1251;103346;-80
2023/03/01 04:12:45;;;;;;;;;;;;;;;-5.69;68.87;98246.44;108891;1251;110014;-75
2023/03/01 04:15:15;;;;;;;;;;;;;;;-5.68;68.87;98250.22;108639;1251;101346;-74
2023/03/01 04:17:45;;;;;;;;;;;;;;;-5.67;68.88;98251.23;108900;1250;95971;-76
2023/03/01 04:20:17;;;;;;;;;;;;;;;-5.67;68.86;98251.95;108996;1250;95762;-76
2023/03/01 04:22:46;;;;;;;;;;;;;;;-5.69;68.80;98252.55;108772;1249;103413;-74
2023/03/01 04:25:15;;;;;;;;;;;;;;;-5.67;68.66;98241.59;109046;1250;101391;-75
2023/03/01 04:27:43;;;;;;;;;;;;;;;-5.67;68.58;98234.73;108972;1250;99914;-78
2023/03/01 04:30:11;;;;;;;;;;;;;;;-5.66;68.72;98231.36;108980;1249;95813;-74
2023/03/01 04:32:39;;;;;;;;;;;;;;;-5.67;68.62;98235.95;109013;1250;96508;-76
2023/03/01 04:35:07;;;;;;;;;;;;;;;-5.67;68.61;98240.66;109014;1249;112065;-73
2023/03/01 04:37:35;;;;;;;;;;;;;;;-5.68;68.58;98245.15;108691;1251;109395;-78
2023/03/01 04:40:12;;;;;;;;;;;;;;;-5.69;68.81;98248.21;108974;1250;99724;-74
2023/03/01 04:42:40;;;;;;;;;;;;;;;-5.70;68.73;98250.35;108975;1249;95700;-75
2023/03/01 04:45:12;;;;;;;;;;;;;;;-5.70;68.64;98261.40;108990;1250;95713;-74
2023/03/01 04:47:42;;;;;;;;;;;;;;;-5.71;68.61;98263.55;109035;1250;103750;-75
2023/03/01 04:50:11;;;;;;;;;;;;;;;-5.73;68.68;98262.11;109008;1249;101366;-76
2023/03/01 04:52:39;;;;;;;;;;;;;;;-5.78;68.80;98263.77;108780;1250;108481;-75
2023/03/01 04:55:07;;;;;;;;;;;;;;;-5.81;68.83;98263.30;108706;1251;95945;-75
2023/03/01 04:57:35;;;;;;;;;;;;;;;-5.84;68.85;98259.08;109005;1250;95727;-73
2023/03/01 05:00:19;;;;;;;;;;;;;;;-5.89;68.93;98251.64;109046;1250;103615;-76
2023/03/01 05:02:59;;;;;;;;;;;;;;;-5.90;69.03;98252.26;109009;1250;101060;-77
2023/03/01 05:05:32;;;;;;;;;;;;;;;-5.93;68.84;98251.92;108985;1249;100171;-75
2023/03/01 05:08:02;;;;;;;;;;;;;;;-5.96;69.02;98251.95;108995;1249;95545;-78
2023/03/01 05:10:31;;;;;;;;;;;;;;;-5.97;69.12;98248.66;109090;1250;95620;-75
2023/03/01 05:13:00;;;;;;;;;;;;;;;-5.99;69.05;98246.83;109020;1250;103472;-74
2023/03/01 05:15:29;;;;;;;;;;;;;;;-6.05;69.06;98243.49;109039;1249;101261;-78
2023/03/01 05:17:59;;;;;;;;;;;;;;;-6.10;69.07;98238.90;108960;1249;100093;-75
2023/03/01 05:20:30;;;;;;;;;;;;;;;-6.12;69.25;98244.63;109015;1250;95555;-75
2023/03/01 05:23:00;;;;;;;;;;;;;;;-6.12;69.26;98243.20;109032;1250;95892;-75
2023/03/01 05:25:32;;;;;;;;;;;;;;;-6.10;69.45;98239.09;108987;1250;103550;-75
2023/03/01 05:28:04;;;;;;;;;;;;;;;-6.08;69.52;98241.76;108693;1251;100831;-75
2023/03/01 05:30:33;;;;;;;;;;;;;;;-6.05;69.50;98243.70;108989;1249;98844;-79
2023/03/01 05:33:02;;;;;;;;;;;;;;;-6.03;69.51;98245.52;109007;1249;95499;-78
2023/03/01 05:35:32;;;;;;;;;;;;;;;-6.02;69.49;98243.52;108668;1251;95736;-74
2023/03/01 05:38:00;;;;;;;;;;;;;;;-6.00;69.61;98241.10;108981;1250;103201;-77
2023/03/01 05:40:29;;;;;;;;;;;;;;;-5.98;69.55;98237.99;108824;1249;109031;-74
2023/03/01 05:42:57;;;;;;;;;;;;;;;-5.96;69.53;98240.70;108965;1250;109395;-74
2023/03/01 05:45:26;;;;;;;;;;;;;;;-5.95;69.44;98238.55;108954;1250;95511;-75
2023/03/01 05:47:54;;;;;;;;;;;;;;;-5.95;69.61;98233.46;108941;1249;95591;-74
2023/03/01 05:50:27;;;;;;;;;;;;;;;-5.93;69.69;98235.13;109044;1250;103661;-78
2023/03/01 05:53:08;;;;;;;;;;;;;;;-5.92;69.60;98233.48;108965;1250;101699;-75
2023/03/01 05:55:37;;;;;;;;;;;;;;;-5.91;69.67;98231.08;108954;1250;100120;-74
2023/03/01 05:58:06;;;;;;;;;;;;;;;-5.89;69.58;98229.98;109009;1249;95874;-76
2023/03/01 06:00:34;;;;;;;;;;;;;;;-5.89;69.60;98226.58;108982;1249;96435;-74
2023/03/01 06:03:03;;;;;;;;;;;;;;;-5.87;69.55;98222.94;108981;1250;102576;-74
2023/03/01 06:05:31;;;;;;;;;;;;;;;-5.85;69.75;98220.20;108958;1249;109815;-76
2023/03/01 06:08:00;;;;;;;;;;;;;;;-5.83;69.80;98217.30;108925;1249;99951;-75
2023/03/01 06:10:28;;;;;;;;;;;;;;;-5.81;69.68;98216.83;108936;1249;95629;-74
2023/03/01 06:12:57;;;;;;;;;;;;;;;-5.77;69.64;98213.09;108961;1249;95878;-74
2023/03/01 06:15:25;;;;;;;;;;;;;;;-5.74;69.88;98211.83;108747;1250;112175;-74
2023/03/01 06:17:56;;;;;;;;;;;;;;;-5.71;69.90;98212.36;108958;1250;110274;-74
2023/03/01 06:20:25;;;;;;;;;;;;;;;-5.67;70.00;98215.80;108958;1250;99625;-75
2023/03/01 06:22:53;;;;;;;;;;;;;;;-5.63;69.96;98219.05;108648;1250;95736;-75
2023/03/01 06:25:25;;;;;;;;;;;;;;;-5.59;69.95;98221.81;108691;1251;95820;-74
2023/03/01 06:27:53;;;;;;;;;;;;;;;-5.55;69.93;98219.84;109011;1250;103705;-76
2023/03/01 06:30:22;;;;;;;;;;;;;;;-5.51;69.99;98226.21;108985;1250;101419;-75
2023/03/01 06:32:50;;;;;;;;;;;;;;;-5.45;70.03;98228.31;108959;1249;99105;-73
2023/03/01 06:35:19;;;;;;;;;;;;;;;-5.40;70.25;98229.11;108650;1249;95615;-74
2023/03/01 06:37:48;;;;;;;;;;;;;;;-5.36;70.34;98229.92;109008;1249;95587;-76
2023/03/01 06:40:16;;;;;;;;;;;;;;;-5.31;70.36;98227.30;109004;1250;103019;-76
2023/03/01 06:42:48;;;;;;;;;;;;;;;-5.25;70.52;98231.84;108979;1249;101176;-75
2023/03/01 06:45:17;;;;;;;;;;;;;;;-5.19;70.58;98237.98;109017;1250;99522;-74
2023/03/01 06:47:44;;;;;;;;;;;;;;;-5.14;70.49;98239.92;108985;1250;95535;-74
2023/03/01 06:50:13;;;;;;;;;;;;;;;-5.06;70.42;98246.67;109015;1250;95600;-76
2023/03/01 06:52:43;;;;;;;;;;;;;;;-4.97;70.35;98245.58;108991;1250;103709;-77
2023/03/01 06:55:12;;;;;;;;;;;;;;;-4.87;70.33;98245.84;108962;1250;101100;-78
2023/03/01 06:57:40;;;;;;;;;;;;;;;-4.79;70.42;98245.98;108997;1250;99881;-74
2023/03/01 07:00:09;;;;;;;;;;;;;;;-4.68;70.41;98244.83;108979;1250;95543;-74
2023/03/01 07:02:37;;;;;;;;;;;;;;;-4.64;70.34;98246.48;108686;1256;95734;-77
2023/03/01 07:05:05;;;;;;;;;;;;;;;-4.58;70.32;98241.39;109004;1250;103440;-74
2023/03/01 07:07:33;;;;;;;;;;;;;;;-4.54;70.43;98242.17;109036;1250;101086;-74
2023/03/01 07:10:01;;;;;;;;;;;;;;;-4.47;70.43;98239.58;108955;1249;100096;-74
2023/03/01 07:12:29;;;;;;;;;;;;;;;-4.41;70.47;98232.19;108970;1249;95573;-74
2023/03/01 07:14:57;;;;;;;;;;;;;;;-4.37;70.53;98232.61;108953;1249;95556;-74
2023/03/01 07:17:25;;;;;;;;;;;;;;;-4.30;70.56;98230.94;109039;1250;103743;-75
2023/03/01 07:19:53;;;;;;;;;;;;;;;-4.25;70.48;98225.70;108997;1249;101363;-74
2023/03/01 07:22:21;;;;;;;;;;;;;;;-4.18;70.45;98223.25;108784;1249;100775;-76
2023/03/01 07:24:49;;;;;;;;;;;;;;;-4.11;70.32;98224.77;108643;1250;96573;-75
2023/03/01 07:27:17;;;;;;;;;;;;;;;-4.03;70.25;98220.51;108953;1250;95907;-78
2023/03/01 07:29:45;;;;;;;;;;;;;;;-3.93;70.18;98217.58;108990;1249;103598;-74
2023/03/01 07:32:14;;;;;;;;;;;;;;;-3.84;70.26;98219.95;108862;1251;100085;-79
2023/03/01 07:34:42;;;;;;;;;;;;;;;-3.74;70.37;98221.43;109011;1250;98541;-74
2023/03/01 07:37:10;;;;;;;;;;;;;;;-3.66;70.10;98220.70;108999;1250;95579;-76
2023/03/01 07:39:38;;;;;;;;;;;;;;;-3.57;70.03;98213.55;109025;1250;95667;-75
2023/03/01 07:42:06;;;;;;;;;;;;;;;-3.44;70.07;98211.59;109022;1250;102875;-74
2023/03/01 07:44:34;;;;;;;;;;;;;;;-3.29;70.04;98205.63;109011;1250;100991;-74
2023/03/01 07:47:02;;;;;;;;;;;;;;;-3.11;70.00;98198.75;108963;1250;100045;-74
2023/03/01 07:49:30;;;;;;;;;;;;;;;-2.94;70.08;98201.97;108962;1249;95512;-73
2023/03/01 07:51:58;;;;;;;;;;;;;;;-2.80;69.87;98203.10;109036;1249;95594;-76
2023/03/01 07:54:27;;;;;;;;;;;;;;;-2.68;69.71;98199.38;109022;1250;103113;-76
2023/03/01 07:56:55;;;;;;;;;;;;;;;-2.54;69.65;98188.16;108931;1251;190916;-74
2023/03/01 07:59:28;;;;;;;;;;;;;;;-2.38;69.57;98182.09;108973;1250;100018;-74
2023/03/01 08:01:57;;;;;;;;;;;;;;;-2.20;69.39;98180.01;108969;1249;95815;-74
2023/03/01 08:04:26;;;;;;;;;;;;;;;-2.02;69.37;98176.71;109018;1250;95599;-75
2023/03/01 08:06:55;;;;;;;;;;;;;;;-1.86;69.20;98171.13;109060;1250;103365;-75
2023/03/01 08:09:23;;;;;;;;;;;;;;;-1.66;69.10;98165.58;108887;1250;101211;-74
2023/03/01 08:11:51;;;;;;;;;;;;;;;-1.47;68.76;98162.65;109022;1249;99812;-76
2023/03/01 08:14:19;;;;;;;;;;;;;;;-1.23;68.86;98159.39;108950;1250;95890;-73
2023/03/01 08:16:49;;;;;;;;;;;;;;;-0.94;68.68;98160.46;108726;1251;95951;-75
2023/03/01 08:19:17;;;;;;;;;;;;;;;-0.63;68.48;98155.43;109024;1249;103572;-73
2023/03/01 08:21:45;;;;;;;;;;;;;;;-0.32;68.22;98153.60;109031;1250;101114;-74
2023/03/01 08:24:13;;;;;;;;;;;;;;;0.01;67.89;98144.70;108971;1249;99790;-74
2023/03/01 08:26:42;;;;;;;;;;;;;;;0.33;67.64;98139.34;109001;1249;95569;-73
2023/03/01 08:29:10;;;;;;;;;;;;;;;0.60;66.97;98140.02;109011;1250;95604;-73
2023/03/01 08:31:39;;;;;;;;;;;;;;;0.82;66.54;98149.61;108633;1251;103063;-77
2023/03/01 08:34:09;;;;;;;;;;;;;;;1.08;66.11;98142.55;108975;1250;100682;-74
2023/03/01 08:36:38;;;;;;;;;;;;;;;1.30;65.78;98140.77;108971;1250;99951;-75
2023/03/01 08:39:07;;;;;;;;;;;;;;;1.50;65.13;98136.91;108991;1250;95594;-75
2023/03/01 08:41:35;;;;;;;;;;;;;;;1.70;64.87;98129.41;108989;1250;95613;-75
2023/03/01 08:44:03;;;;;;;;;;;;;;;1.96;64.72;98128.62;108753;1254;103496;-74
2023/03/01 08:46:33;;;;;;;;;;;;;;;2.19;64.37;98129.27;108653;1251;101511;-74
2023/03/01 08:49:04;;;;;;;;;;;;;;;2.45;64.08;98127.55;108982;1249;99827;-74
2023/03/01 08:51:36;;;;;;;;;;;;;;;2.65;63.58;98123.20;108603;1251;95613;-77
2023/03/01 08:54:08;;;;;;;;;;;;;;;2.84;63.04;98122.33;108779;1250;96567;-74
2023/03/01 08:56:36;;;;;;;;;;;;;;;2.98;62.38;98121.89;108933;1253;103992;-74
2023/03/01 08:59:04;;;;;;;;;;;;;;;3.13;62.46;98122.89;108893;1251;101300;-74
2023/03/01 09:01:32;;;;;;;;;;;;;;;3.39;62.55;98122.70;108937;1251;99872;-74
2023/03/01 09:04:00;;;;;;;;;;;;;;;3.62;61.77;98125.58;108933;1249;95571;-76
2023/03/01 09:06:31;;;;;;;;;;;;;;;3.78;61.32;98129.48;108901;1251;95756;-76
2023/03/01 09:09:00;;;;;;;;;;;;;;;3.94;60.20;98126.48;108917;1251;103753;-74
2023/03/01 09:11:29;;;;;;;;;;;;;;;4.12;60.40;98120.75;108936;1251;101057;-74
2023/03/01 09:13:57;;;;;;;;;;;;;;;4.42;60.16;98105.96;108941;1250;98710;-74
2023/03/01 09:16:25;;;;;;;;;;;;;;;4.71;59.53;98101.93;108908;1250;95666;-74
2023/03/01 09:18:54;;;;;;;;;;;;;;;5.01;59.39;98098.23;109000;1250;95579;-73
2023/03/01 09:21:24;;;;;;;;;;;;;;;5.30;59.03;98094.64;109039;1249;102167;-74
2023/03/01 09:23:52;;;;;;;;;;;;;;;5.62;58.22;98091.76;109019;1250;101331;-76
2023/03/01 09:26:22;;;;;;;;;;;;;;;5.84;57.73;98091.52;108994;1250;99995;-74
2023/03/01 09:28:51;;;;;;;;;;;;;;;6.17;57.52;98088.83;108977;1249;95553;-76
2023/03/01 09:31:20;;;;;;;;;;;;;;;6.57;56.82;98088.28;109043;1251;95765;-74
2023/03/01 09:33:50;;;;;;;;;;;;;;;6.84;55.67;98089.81;109051;1250;103017;-74
2023/03/01 09:36:19;;;;;;;;;;;;;;;7.09;55.08;98094.36;109027;1251;111275;-74
2023/03/01 09:38:48;;;;;;;;;;;;;;;7.15;54.13;98094.64;108951;1249;100387;-75
2023/03/01 09:41:27;;;;;;;;;;;;;;;7.35;54.31;98094.71;109014;1249;95621;-75
2023/03/01 09:44:00;;;;;;;;;;;;;;;7.74;53.61;98098.48;108760;1251;95636;-74
2023/03/01 09:46:28;;;;;;;;;;;;;;;8.05;52.95;98091.13;108669;1255;103143;-73
2023/03/01 09:48:58;;;;;;;;;;;;;;;8.27;52.50;98090.08;108651;1249;109799;-73
2023/03/01 09:51:30;;;;;;;;;;;;;;;8.48;51.72;98093.95;108989;1249;98665;-76
2023/03/01 09:54:00;;;;;;;;;;;;;;;8.68;50.91;98092.31;108954;1253;95577;-75
2023/03/01 09:56:34;;;;;;;;;;;;;;;8.77;50.21;98092.52;108711;1251;95586;-74
2023/03/01 09:59:29;;;;;;;;;;;;;;;8.82;49.57;98087.03;108934;1250;103495;-74
2023/03/01 10:02:18;;;;;;;;;;;;;;;8.89;49.62;98081.27;108341;1256;100909;-74
2023/03/01 10:04:50;;;;;;;;;;;;;;;9.09;49.60;98076.55;108505;1257;100134;-77
2023/03/01 10:07:18;;;;;;;;;;;;;;;9.09;48.08;98073.70;108541;1256;95945;-75
2023/03/01 10:09:47;;;;;;;;;;;;;;;8.81;48.12;98074.19;108590;1255;95730;-76
2023/03/01 10:12:29;;;;;;;;;;;;;;;8.92;48.86;98071.09;108573;1255;103676;-73
2023/03/01 10:14:56;;;;;;;;;;;;;;;9.19;48.64;98070.18;108537;1255;101462;-76
2023/03/01 10:17:37;;;;;;;;;;;;;;;9.38;48.22;98071.52;108538;1255;99934;-73
2023/03/01 10:20:20;;;;;;;;;;;;;;;9.57;48.45;98075.69;108542;1256;95614;-73
2023/03/01 10:22:51;;;;;;;;;;;;;;;9.85;48.13;98072.54;108327;1255;95668;-75
2023/03/01 10:25:34;;;;;;;;;;;;;;;9.78;46.90;98070.75;108293;1256;103410;-74
2023/03/01 10:28:28;;;;;;;;;;;;;;;9.80;47.20;98065.71;108478;1256;101476;-75
2023/03/01 10:30:57;;;;;;;;;;;;;;;9.99;47.22;98061.82;108535;1255;99965;-74
2023/03/01 10:33:31;;;;;;;;;;;;;;;10.18;47.00;98058.92;108434;1252;95631;-73
2023/03/01 10:35:59;;;;;;;;;;;;;;;10.29;47.20;98056.38;108874;1251;95591;-74
2023/03/01 10:38:29;;;;;;;;;;;;;;;10.50;47.10;98050.46;108852;1251;103584;-74
2023/03/01 10:41:01;;;;;;;;;;;;;;;10.75;46.23;98046.74;108890;1251;101292;-75
2023/03/01 10:43:41;;;;;;;;;;;;;;;10.75;45.55;98045.79;108796;1253;99694;-74
2023/03/01 10:46:24;;;;;;;;;;;;;;;10.77;45.29;98040.73;108597;1252;95590;-76
2023/03/01 10:49:11;;;;;;;;;;;;;;;10.88;44.98;98033.70;108887;1251;95640;-73
2023/03/01 10:51:40;;;;;;;;;;;;;;;10.98;44.92;98034.89;108890;1251;103411;-74
2023/03/01 10:54:17;;;;;;;;;;;;;;;11.03;44.55;98034.92;108895;1251;101446;-73
2023/03/01 10:56:55;;;;;;;;;;;;;;;10.85;43.86;98026.88;108848;1251;100101;-73
2023/03/01 10:59:27;;;;;;;;;;;;;;;10.76;44.61;98021.29;108839;1251;95576;-73
2023/03/01 11:02:04;;;;;;;;;;;;;;;11.02;44.67;98019.58;108913;1251;95582;-74
2023/03/01 11:04:32;;;;;;;;;;;;;;;11.31;44.17;98016.77;108929;1251;102140;-74
2023/03/01 11:07:01;;;;;;;;;;;;;;;11.50;44.34;98016.31;108920;1251;100272;-76
2023/03/01 11:09:37;;;;;;;;;;;;;;;11.78;43.93;98011.18;108875;1251;99915;-73
2023/03/01 11:12:09;;;;;;;;;;;;;;;12.06;43.67;98006.00;108839;1251;95619;-73
2023/03/01 11:14:40;;;;;;;;;;;;;;;12.37;43.52;98005.27;108872;1251;95580;-74
2023/03/01 11:17:17;;;;;;;;;;;;;;;12.57;41.85;97999.14;108990;1251;103574;-74
2023/03/01 11:20:01;;;;;;;;;;;;;;;12.52;41.23;98000.05;108961;1251;100198;-73
2023/03/01 11:22:29;;;;;;;;;;;;;;;12.42;41.88;97996.99;108684;1249;99123;-75
2023/03/01 11:24:58;;;;;;;;;;;;;;;12.61;42.00;97993.94;108951;1249;95625;-73
2023/03/01 11:27:27;;;;;;;;;;;;;;;12.81;41.80;97987.66;108997;1250;95716;-73
2023/03/01 11:30:01;;;;;;;;;;;;;;;13.10;41.35;97980.63;108899;1251;103530;-75
2023/03/01 11:32:34;;;;;;;;;;;;;;;13.29;40.69;97970.44;108922;1250;101292;-76
2023/03/01 11:35:11;;;;;;;;;;;;;;;13.40;40.81;97963.81;108858;1251;99913;-74
2023/03/01 11:37:42;;;;;;;;;;;;;;;13.59;40.58;97960.59;108907;1250;95552;-76
2023/03/01 11:40:24;;;;;;;;;;;;;;;13.70;40.45;97966.21;108892;1251;96355;-73
2023/03/01 11:43:11;;;;;;;;;;;;;;;13.73;39.82;97969.65;108902;1251;103287;-73
2023/03/01 11:45:51;;;;;;;;;;;;;;;13.76;39.19;97964.07;108935;1250;101434;-77
2023/03/01 11:48:30;;;;;;;;;;;;;;;13.78;39.40;97961.06;108888;1250;99831;-74
2023/03/01 11:51:04;;;;;;;;;;;;;;;13.61;38.17;97961.88;109030;1250;95535;-74
2023/03/01 11:53:37;;;;;;;;;;;;;;;13.82;38.59;97969.42;109012;1249;96547;-76
2023/03/01 11:56:11;;;;;;;;;;;;;;;14.15;37.96;97965.63;109071;1250;104323;-74
2023/03/01 11:58:39;;;;;;;;;;;;;;;14.39;37.33;97964.98;109020;1250;101364;-75
2023/03/01 12:01:20;;;;;;;;;;;;;;;14.60;37.68;97962.62;109011;1250;108486;-77
2023/03/01 12:03:53;;;;;;;;;;;;;;;14.80;37.24;97960.77;108752;1250;95675;-74
2023/03/01 12:06:29;;;;;;;;;;;;;;;14.86;36.55;97953.55;109027;1250;95612;-76
2023/03/01 12:09:00;;;;;;;;;;;;;;;14.74;36.32;97943.19;109057;1250;103704;-74
2023/03/01 12:11:39;;;;;;;;;;;;;;;14.53;36.06;97944.59;108989;1251;100293;-75
2023/03/01 12:14:19;;;;;;;;;;;;;;;14.31;35.84;97943.89;108626;1250;99973;-74
2023/03/01 12:17:00;;;;;;;;;;;;;;;14.25;36.51;97939.17;109027;1251;95554;-76
2023/03/01 12:19:31;;;;;;;;;;;;;;;14.24;35.85;97932.75;108951;1251;95616;-75
2023/03/01 12:22:08;;;;;;;;;;;;;;;14.14;36.00;97929.04;108923;1251;103532;-75
2023/03/01 12:24:38;;;;;;;;;;;;;;;14.06;36.60;97925.75;108966;1251;100129;-75
2023/03/01 12:27:18;;;;;;;;;;;;;;;14.02;36.38;97921.34;108531;1251;100172;-76
2023/03/01 12:30:05;;;;;;;;;;;;;;;14.02;36.91;97920.02;108869;1251;95601;-77
2023/03/01 12:32:38;;;;;;;;;;;;;;;14.07;37.12;97920.35;108910;1251;96343;-75
2023/03/01 12:35:14;;;;;;;;;;;;;;;14.09;36.77;97919.92;108900;1251;102483;-75
2023/03/01 12:38:08;;;;;;;;;;;;;;;14.07;36.95;97920.52;108947;1250;101346;-77
2023/03/01 12:40:51;;;;;;;;;;;;;;;14.10;37.27;97920.00;108546;1256;99856;-75
2023/03/01 12:43:54;;;;;;;;;;;;;;;14.20;37.16;97919.55;108548;1255;95716;-75
2023/03/01 12:46:29;;;;;;;;;;;;;;;14.11;36.68;97919.99;108224;1259;95762;-75
2023/03/01 12:49:13;;;;;;;;;;;;;;;14.03;36.83;97920.50;108200;1261;102600;-75
2023/03/01 12:51:43;;;;;;;;;;;;;;;14.00;37.00;97919.86;108219;1260;101843;-77
2023/03/01 12:54:22;;;;;;;;;;;;;;;14.02;37.36;97918.48;108202;1259;99900;-75